Belvidere, Illinois
Current Conditions -  °F | °C
As of 9:29 PM on Monday 26 Jan 2015 (Local Time) from KRFD Reporting Station
Haze Haze  
Wind Chill: 26°   Ceiling: 400
Heat Index: 26°   Visibility: 2.5mi
Dew Point: 24°   Wind: 3mph
Humidity: 92%   Direction: 130°SE
Pressure: 29.89"   Gusts: NA
Location:  42.26°N, 88.84°W
Report Text: KRFD 270329Z 13003KT 2 1/2SM BR OVC004 M03/M04 A2989 RMK AO2 T10331044
Loading
Personal Weather Stations






























Interactive Weather Map New forecast layout! Learn more

10-Day Weather Forecast

Advertisements
Track Severe Weather on mobile